Tivjaku, Russia
Current Conditions -  °F | °C
As of 8:30 PM on Friday 28 Nov 2014 (Local Time) from UHHH Reporting Station
Clear Clear  
Wind Chill: -8°   Ceiling: Unl
Heat Index:   Visibility: 6mi
Dew Point: -8°   Wind: 4mph
Humidity: 66%   Direction: 170°S
Pressure: 30.24"   Gusts: NA
Location:  48.6°N, 137.05°E
Report Text: UHHH 281030Z 17002MPS CAVOK M17/M22 Q1024 NOSIG RMK QFE761/101523090060
Loading
Personal Weather Stations






























Interactive Weather Map New forecast layout! Learn more

10-Day Weather Forecast

Advertisements
Track Severe Weather on mobile